Ellwood, Georgia
Current Conditions -  °F | °C
As of 12:53 PM on Thursday 23 Oct 2014 (Local Time) from KAGS Reporting Station
Clear Clear  
Wind Chill: 67°   Ceiling: Unl
Heat Index: 67°   Visibility: 10mi
Dew Point: 37°   Wind: 7mph
Humidity: 33%   Direction: 300°WNW
Pressure: 30.08"   Gusts: NA
Location:  33.3028°N, 82.1636°W
Report Text: KAGS 231653Z 30006KT 10SM CLR 19/03 A3008 RMK AO2 SLP184 T01940028
Loading
Personal Weather Stations






























Interactive Weather Map
Tropical Storm Tracking
New forecast layout! Learn more

10-Day Weather Forecast

Advertisements
Track Severe Weather on mobile